createdAt,value
2017-08-31T00:00:34.245Z,12.33
2017-08-31T00:01:34.225Z,12.29
2017-08-31T00:02:33.915Z,12.31
2017-08-31T00:03:34.216Z,12.36
2017-08-31T00:04:33.595Z,12.31
2017-08-31T00:05:33.900Z,12.44
2017-08-31T00:06:34.185Z,12.26
2017-08-31T00:07:34.184Z,12.41
2017-08-31T00:08:33.868Z,12.36
2017-08-31T00:09:33.867Z,12.3
2017-08-31T00:10:34.155Z,12.31
2017-08-31T00:11:34.152Z,12.34
2017-08-31T00:12:33.835Z,12.29
2017-08-31T00:13:33.829Z,12.33
2017-08-31T00:14:33.823Z,12.26
2017-08-31T00:15:33.810Z,12.26
2017-08-31T00:16:33.805Z,12.29
2017-08-31T00:17:34.118Z,12.33
2017-08-31T00:18:33.795Z,12.46
2017-08-31T00:19:33.478Z,12.52
2017-08-31T00:20:33.467Z,12.56
2017-08-31T00:21:33.775Z,12.43
2017-08-31T00:22:33.453Z,12.4
2017-08-31T00:23:33.451Z,12.37
2017-08-31T00:24:34.063Z,12.36
2017-08-31T00:25:34.057Z,12.34
2017-08-31T00:26:34.045Z,12.29
2017-08-31T00:27:34.048Z,12.31
2017-08-31T00:28:33.721Z,12.19
2017-08-31T00:29:33.704Z,12.22
2017-08-31T00:30:34.026Z,12.33
2017-08-31T00:31:34.006Z,12.31
2017-08-31T00:32:33.997Z,12.33
2017-08-31T00:33:34.005Z,12.36
2017-08-31T00:34:33.977Z,12.36
2017-08-31T00:35:33.678Z,12.31
2017-08-31T00:36:33.972Z,12.36
2017-08-31T00:37:33.966Z,12.19
2017-08-31T00:38:33.966Z,12.16
2017-08-31T00:39:33.650Z,12.15
2017-08-31T00:40:33.636Z,12.04
2017-08-31T00:41:33.971Z,12.15
2017-08-31T00:42:33.936Z,12.05
2017-08-31T00:43:33.923Z,11.88
2017-08-31T00:44:33.607Z,11.93
2017-08-31T00:45:33.908Z,11.9
2017-08-31T00:46:33.600Z,11.98
2017-08-31T00:47:33.586Z,11.96
2017-08-31T00:48:33.268Z,11.88
2017-08-31T00:49:33.269Z,11.98
2017-08-31T00:50:33.871Z,11.9
2017-08-31T00:51:33.559Z,11.78
2017-08-31T00:52:33.872Z,11.82
2017-08-31T00:53:33.846Z,11.9
2017-08-31T00:54:33.847Z,11.96
2017-08-31T00:55:33.834Z,11.88
2017-08-31T00:56:33.528Z,11.9
2017-08-31T00:57:33.838Z,11.97
2017-08-31T00:58:33.823Z,11.93
2017-08-31T00:59:33.504Z,11.93
2017-08-31T01:00:33.496Z,11.79
2017-08-31T01:01:33.488Z,11.82
2017-08-31T01:02:33.800Z,11.78
2017-08-31T01:03:33.795Z,11.94
2017-08-31T01:04:33.474Z,12
2017-08-31T01:05:33.493Z,11.96
2017-08-31T01:06:33.459Z,11.84
2017-08-31T01:07:33.444Z,11.77
2017-08-31T01:08:33.750Z,11.77
2017-08-31T01:09:33.426Z,11.72
2017-08-31T01:10:33.420Z,11.75
2017-08-31T01:11:33.418Z,11.63
2017-08-31T01:12:33.405Z,11.75
2017-08-31T01:13:33.394Z,11.77
2017-08-31T01:14:33.394Z,11.66
2017-08-31T01:15:33.386Z,11.26
2017-08-31T01:16:33.383Z,11.11
2017-08-31T01:17:33.063Z,11.05
2017-08-31T01:18:33.674Z,11.05
2017-08-31T01:19:33.670Z,11.02
2017-08-31T01:20:33.339Z,11.11
2017-08-31T01:21:33.652Z,11.23
2017-08-31T01:22:33.650Z,11.2
2017-08-31T01:23:33.648Z,11.28
2017-08-31T01:24:33.634Z,11.42
2017-08-31T01:25:33.620Z,11.51
2017-08-31T01:26:33.623Z,11.51
2017-08-31T01:27:33.609Z,11.62
2017-08-31T01:28:33.601Z,11.6
2017-08-31T01:29:33.593Z,11.57
2017-08-31T01:30:33.583Z,11.74
2017-08-31T01:31:33.266Z,11.75
2017-08-31T01:32:33.567Z,11.77
2017-08-31T01:33:33.553Z,11.66
2017-08-31T01:34:33.559Z,11.69
2017-08-31T01:35:33.547Z,11.67
2017-08-31T01:36:33.540Z,11.64
2017-08-31T01:37:33.527Z,11.72
2017-08-31T01:38:33.520Z,11.7
2017-08-31T01:39:33.509Z,11.6
2017-08-31T01:40:33.519Z,11.67
2017-08-31T01:41:33.200Z,11.78
2017-08-31T01:42:33.493Z,11.79
2017-08-31T01:43:33.527Z,11.72
2017-08-31T01:44:33.491Z,11.67
2017-08-31T01:45:33.477Z,11.77
2017-08-31T01:46:33.476Z,11.82
2017-08-31T01:47:33.457Z,11.67
2017-08-31T01:48:33.463Z,11.78
2017-08-31T01:49:33.468Z,11.88
2017-08-31T01:50:33.436Z,11.77
2017-08-31T01:51:33.437Z,11.75
2017-08-31T01:52:33.422Z,11.82
2017-08-31T01:53:33.109Z,11.74
2017-08-31T01:54:33.409Z,11.78
2017-08-31T01:55:33.412Z,11.79
2017-08-31T01:56:33.401Z,11.9
2017-08-31T01:57:33.391Z,12.03
2017-08-31T01:58:33.381Z,12
2017-08-31T01:59:33.386Z,12.01
2017-08-31T02:00:33.358Z,12.03
2017-08-31T02:01:33.368Z,12.03
2017-08-31T02:02:33.356Z,12.13
2017-08-31T02:03:33.342Z,12.15
2017-08-31T02:04:33.343Z,12.18
2017-08-31T02:05:33.332Z,12.12
2017-08-31T02:06:33.315Z,12.36
2017-08-31T02:07:33.321Z,12.51
2017-08-31T02:08:33.321Z,12.52
2017-08-31T02:09:33.300Z,12.52
2017-08-31T02:10:32.986Z,12.43
2017-08-31T02:11:33.287Z,12.58
2017-08-31T02:12:32.972Z,12.56
2017-08-31T02:13:33.275Z,12.55
2017-08-31T02:14:33.266Z,12.66
2017-08-31T02:15:33.267Z,12.52
2017-08-31T02:16:33.255Z,12.63
2017-08-31T02:17:33.234Z,12.62
2017-08-31T02:18:33.246Z,12.56
2017-08-31T02:19:33.238Z,12.58
2017-08-31T02:20:33.228Z,12.62
2017-08-31T02:21:33.222Z,12.76
2017-08-31T02:22:32.889Z,12.76
2017-08-31T02:23:33.199Z,12.69
2017-08-31T02:24:32.889Z,12.69
2017-08-31T02:25:33.186Z,12.62
2017-08-31T02:26:33.184Z,12.56
2017-08-31T02:27:33.184Z,12.66
2017-08-31T02:28:33.172Z,12.58
2017-08-31T02:29:33.158Z,12.59
2017-08-31T02:30:33.140Z,12.61
2017-08-31T02:31:33.142Z,12.62
2017-08-31T02:32:33.138Z,12.59
2017-08-31T02:33:33.130Z,12.71
2017-08-31T02:34:33.129Z,12.8
2017-08-31T02:35:33.123Z,12.69
2017-08-31T02:36:33.098Z,12.71
2017-08-31T02:37:33.102Z,12.7
2017-08-31T02:38:33.094Z,12.71
2017-08-31T02:39:33.081Z,12.85
2017-08-31T02:40:33.068Z,12.89
2017-08-31T02:41:33.067Z,12.89
2017-08-31T02:42:33.067Z,12.77
2017-08-31T02:43:33.055Z,12.8
2017-08-31T02:44:33.047Z,12.69
2017-08-31T02:45:33.051Z,12.61
2017-08-31T02:46:33.034Z,12.69
2017-08-31T02:47:33.029Z,12.62
2017-08-31T02:48:33.022Z,12.61
2017-08-31T02:49:33.005Z,12.62
2017-08-31T02:50:33.003Z,12.61
2017-08-31T02:51:32.990Z,12.58
2017-08-31T02:52:32.679Z,12.41
2017-08-31T02:53:32.661Z,12.43
2017-08-31T02:54:32.669Z,12.46
2017-08-31T02:55:32.963Z,12.38
2017-08-31T02:56:32.965Z,12.43
2017-08-31T02:57:32.948Z,12.41
2017-08-31T02:58:32.937Z,12.36
2017-08-31T02:59:32.927Z,12.46
2017-08-31T03:00:32.932Z,12.46
2017-08-31T03:01:32.924Z,12.4
2017-08-31T03:02:32.912Z,12.43
2017-08-31T03:03:32.590Z,12.41
2017-08-31T03:04:32.897Z,12.41
2017-08-31T03:05:32.899Z,12.44
2017-08-31T03:06:32.885Z,12.4
2017-08-31T03:07:32.877Z,12.54
2017-08-31T03:08:32.868Z,12.43
2017-08-31T03:09:32.871Z,12.4
2017-08-31T03:10:32.868Z,12.56
2017-08-31T03:11:32.845Z,12.55
2017-08-31T03:12:32.836Z,12.52
2017-08-31T03:13:32.519Z,12.69
2017-08-31T03:14:32.832Z,12.58
2017-08-31T03:15:32.834Z,12.55
2017-08-31T03:16:32.822Z,12.44
2017-08-31T03:17:32.803Z,12.43
2017-08-31T03:18:32.787Z,12.4
2017-08-31T03:19:32.781Z,12.36
2017-08-31T03:20:32.788Z,12.26
2017-08-31T03:21:32.792Z,12.36
2017-08-31T03:22:32.772Z,12.33
2017-08-31T03:23:32.757Z,12.36
2017-08-31T03:24:32.447Z,12.31
2017-08-31T03:25:32.436Z,12.3
2017-08-31T03:26:32.433Z,12.38
2017-08-31T03:27:32.424Z,12.41
2017-08-31T03:28:32.723Z,12.33
2017-08-31T03:29:32.718Z,12.33
2017-08-31T03:30:32.723Z,12.15
2017-08-31T03:31:32.402Z,12.18
2017-08-31T03:32:32.386Z,12.18
2017-08-31T03:33:32.382Z,12.21
2017-08-31T03:34:32.059Z,12.11
2017-08-31T03:35:32.364Z,12.15
2017-08-31T03:36:32.353Z,12.3
2017-08-31T03:37:32.351Z,12.37
2017-08-31T03:38:32.662Z,12.44
2017-08-31T03:39:32.682Z,12.55
2017-08-31T03:40:32.331Z,12.56
2017-08-31T03:41:32.329Z,12.4
2017-08-31T03:42:32.320Z,12.52
2017-08-31T03:43:32.313Z,12.52
2017-08-31T03:44:32.303Z,12.43
2017-08-31T03:45:32.601Z,12.43
2017-08-31T03:46:32.604Z,12.16
2017-08-31T03:47:32.594Z,12.16
2017-08-31T03:48:32.577Z,12.22
2017-08-31T03:49:32.265Z,12.15
2017-08-31T03:50:32.568Z,12.21
2017-08-31T03:51:32.568Z,12.36
2017-08-31T03:52:32.540Z,12.3
2017-08-31T03:53:32.544Z,12.33
2017-08-31T03:54:32.535Z,12.26
2017-08-31T03:55:32.536Z,12.19
2017-08-31T03:56:32.525Z,12.19
2017-08-31T03:57:32.508Z,12.29
2017-08-31T03:58:32.507Z,12.36
2017-08-31T03:59:32.509Z,12.41
2017-08-31T04:00:32.499Z,12.44
2017-08-31T04:01:32.474Z,12.55
2017-08-31T04:02:32.482Z,12.55
2017-08-31T04:03:32.485Z,12.54
2017-08-31T04:04:32.460Z,12.49
2017-08-31T04:05:32.455Z,12.52
2017-08-31T04:06:32.444Z,12.51
2017-08-31T04:07:32.448Z,12.46
2017-08-31T04:08:32.436Z,12.54
2017-08-31T04:09:32.423Z,12.51
2017-08-31T04:10:32.412Z,12.43
2017-08-31T04:11:32.456Z,12.38
2017-08-31T04:12:32.399Z,12.43
2017-08-31T04:13:32.389Z,12.43
2017-08-31T04:14:32.393Z,12.41
2017-08-31T04:15:32.383Z,12.41
2017-08-31T04:16:32.060Z,12.46
2017-08-31T04:17:32.358Z,12.54
2017-08-31T04:18:32.355Z,12.46
2017-08-31T04:19:32.357Z,12.4
2017-08-31T04:20:32.344Z,12.38
2017-08-31T04:21:32.333Z,12.31
2017-08-31T04:22:32.327Z,12.33
2017-08-31T04:23:32.329Z,12.31
2017-08-31T04:24:32.316Z,12.22
2017-08-31T04:25:32.314Z,12.18
2017-08-31T04:26:32.286Z,12.3
2017-08-31T04:27:32.299Z,12.43
2017-08-31T04:28:32.279Z,12.41
2017-08-31T04:29:32.272Z,12.31
2017-08-31T04:30:32.274Z,12.31
2017-08-31T04:31:32.246Z,12.4
2017-08-31T04:32:32.250Z,12.4
2017-08-31T04:33:32.238Z,12.38
2017-08-31T04:34:32.232Z,12.41
2017-08-31T04:35:31.610Z,12.4
2017-08-31T04:36:32.215Z,12.43
2017-08-31T04:37:32.207Z,12.38
2017-08-31T04:38:32.192Z,12.38
2017-08-31T04:39:32.203Z,12.38
2017-08-31T04:40:32.183Z,12.26
2017-08-31T04:41:32.171Z,12.3
2017-08-31T04:42:32.173Z,12.31
2017-08-31T04:43:32.161Z,12.33
2017-08-31T04:44:32.149Z,12.34
2017-08-31T04:45:32.150Z,12.26
2017-08-31T04:46:32.139Z,12.33
2017-08-31T04:47:32.134Z,12.26
2017-08-31T04:48:32.126Z,12.33
2017-08-31T04:49:32.115Z,12.4
2017-08-31T04:50:32.109Z,12.43
2017-08-31T04:51:32.100Z,12.43
2017-08-31T04:52:32.098Z,12.43
2017-08-31T04:53:32.073Z,12.55
2017-08-31T04:54:32.078Z,12.56
2017-08-31T04:55:32.069Z,12.61
2017-08-31T04:56:32.064Z,12.56
2017-08-31T04:57:32.049Z,12.62
2017-08-31T04:58:32.042Z,12.62
2017-08-31T04:59:32.033Z,12.69
2017-08-31T05:00:32.031Z,12.73
2017-08-31T05:01:32.012Z,12.87
2017-08-31T05:02:32.004Z,12.91
2017-08-31T05:03:31.996Z,12.85
2017-08-31T05:04:31.990Z,12.94
2017-08-31T05:05:31.682Z,12.89
2017-08-31T05:06:31.980Z,13.01
2017-08-31T05:07:31.967Z,12.98
2017-08-31T05:08:31.987Z,13.07
2017-08-31T05:09:31.644Z,13.03
2017-08-31T05:10:31.641Z,13.04
2017-08-31T05:11:31.955Z,12.96
2017-08-31T05:12:31.628Z,13.17
2017-08-31T05:13:31.922Z,12.98
2017-08-31T05:14:31.944Z,13.13
2017-08-31T05:15:31.599Z,13.14
2017-08-31T05:16:31.902Z,13.22
2017-08-31T05:17:31.586Z,13.14
2017-08-31T05:18:31.582Z,13.21
2017-08-31T05:19:31.569Z,13.32
2017-08-31T05:20:31.564Z,13.31
2017-08-31T05:21:31.549Z,13.28
2017-08-31T05:22:31.854Z,13.28
2017-08-31T05:23:31.540Z,13.19
2017-08-31T05:24:31.843Z,13.16
2017-08-31T05:25:31.529Z,13.29
2017-08-31T05:26:31.515Z,13.55
2017-08-31T05:27:31.504Z,13.68
2017-08-31T05:28:32.018Z,13.71
2017-08-31T05:29:31.813Z,13.39
2017-08-31T05:30:31.487Z,13.55
2017-08-31T05:31:31.783Z,13.46
2017-08-31T05:32:31.466Z,13.59
2017-08-31T05:33:31.458Z,13.54
2017-08-31T05:34:31.770Z,13.54
2017-08-31T05:35:31.771Z,13.38
2017-08-31T05:36:31.749Z,13.43
2017-08-31T05:37:31.426Z,13.47
2017-08-31T05:38:31.741Z,13.71
2017-08-31T05:39:31.430Z,13.91
2017-08-31T05:40:31.106Z,14.27
2017-08-31T05:41:31.715Z,14.44
2017-08-31T05:42:31.403Z,14.41
2017-08-31T05:43:31.386Z,14.38
2017-08-31T05:44:31.073Z,14.41
2017-08-31T05:45:31.384Z,14.56
2017-08-31T05:46:31.063Z,14.53
2017-08-31T05:47:31.680Z,14.21
2017-08-31T05:48:31.354Z,14.04
2017-08-31T05:49:31.667Z,14.16
2017-08-31T05:50:31.648Z,14.08
2017-08-31T05:51:31.639Z,14.04
2017-08-31T05:52:31.331Z,14.02
2017-08-31T05:53:31.641Z,13.99
2017-08-31T05:54:31.311Z,13.81
2017-08-31T05:55:31.833Z,13.9
2017-08-31T05:56:31.612Z,13.88
2017-08-31T05:57:31.614Z,14.02
2017-08-31T05:58:31.607Z,14.17
2017-08-31T05:59:31.801Z,14.36
2017-08-31T06:00:31.780Z,14.01
2017-08-31T06:01:31.569Z,14.05
2017-08-31T06:02:31.573Z,14.27
2017-08-31T06:03:31.563Z,14.19
2017-08-31T06:04:31.569Z,14.41
2017-08-31T06:05:31.232Z,14.64
2017-08-31T06:06:31.757Z,14.8
2017-08-31T06:07:31.250Z,14.82
2017-08-31T06:08:31.533Z,14.85
2017-08-31T06:09:31.532Z,14.54
2017-08-31T06:10:31.202Z,14.26
2017-08-31T06:11:31.519Z,14.38
2017-08-31T06:12:31.495Z,14.53
2017-08-31T06:13:31.514Z,14.59
2017-08-31T06:14:31.187Z,14.49
2017-08-31T06:15:31.171Z,14.67
2017-08-31T06:16:31.176Z,14.41
2017-08-31T06:17:31.468Z,14.16
2017-08-31T06:18:31.146Z,13.98
2017-08-31T06:19:31.138Z,14.12
2017-08-31T06:20:31.144Z,14.29
2017-08-31T06:21:31.136Z,14.12
2017-08-31T06:22:31.479Z,14.02
2017-08-31T06:23:31.430Z,14.13
2017-08-31T06:24:31.117Z,14.11
2017-08-31T06:25:31.106Z,14.17
2017-08-31T06:26:31.437Z,14.04
2017-08-31T06:27:31.403Z,13.73
2017-08-31T06:28:31.392Z,13.73
2017-08-31T06:29:31.390Z,13.61
2017-08-31T06:30:31.383Z,13.54
2017-08-31T06:31:31.375Z,13.47
2017-08-31T06:32:31.374Z,13.53
2017-08-31T06:33:31.369Z,13.53
2017-08-31T06:34:31.261Z,13.55
2017-08-31T06:35:31.245Z,13.57
2017-08-31T06:36:31.347Z,13.57
2017-08-31T06:37:31.332Z,13.53
2017-08-31T06:38:31.327Z,13.63
2017-08-31T06:39:45.921Z,13.66
2017-08-31T06:40:31.526Z,13.69
2017-08-31T06:41:31.301Z,13.66
2017-08-31T06:42:31.301Z,13.57
2017-08-31T06:43:31.288Z,13.59
2017-08-31T06:44:31.279Z,13.65
2017-08-31T06:45:30.957Z,13.69
2017-08-31T06:46:31.255Z,13.41
2017-08-31T06:48:05.730Z,13.22
2017-08-31T06:49:05.712Z,13.43
2017-08-31T06:50:05.709Z,13.66
2017-08-31T06:51:05.697Z,13.81
2017-08-31T06:52:05.393Z,13.68
2017-08-31T06:53:05.701Z,13.57
2017-08-31T06:54:05.682Z,13.65
2017-08-31T06:55:05.689Z,13.65
2017-08-31T07:27:47.438Z,21.74
2017-08-31T08:16:08.134Z,14.94
2017-08-31T08:17:08.125Z,14.50
2017-08-31T08:18:10.338Z,13.52
2017-08-31T08:19:08.107Z,13.14
2017-08-31T08:20:08.117Z,13.11
2017-08-31T08:21:08.096Z,12.72
2017-08-31T08:22:08.081Z,12.72
2017-08-31T08:23:08.075Z,12.67
2017-08-31T08:24:08.068Z,12.60
2017-08-31T08:25:08.058Z,12.68
2017-08-31T08:26:08.050Z,12.79
2017-08-31T08:27:08.042Z,13.10
2017-08-31T08:28:08.034Z,13.10
2017-08-31T08:29:08.024Z,13.10
2017-08-31T08:30:08.018Z,12.39
2017-08-31T08:31:08.010Z,12.29
2017-08-31T08:32:07.999Z,12.41
2017-08-31T08:33:07.991Z,12.32
2017-08-31T08:34:07.982Z,12.50
2017-08-31T08:35:07.977Z,12.60
2017-08-31T08:36:07.966Z,12.92
2017-08-31T08:37:07.957Z,12.92
2017-08-31T08:38:07.950Z,12.50
2017-08-31T08:39:07.941Z,12.64
2017-08-31T08:40:07.932Z,12.67
2017-08-31T08:41:07.924Z,12.71
2017-08-31T08:42:07.918Z,12.59
2017-08-31T08:43:07.908Z,12.52
2017-08-31T08:44:07.903Z,12.82
2017-08-31T08:45:07.916Z,12.86
2017-08-31T08:46:07.883Z,12.79
2017-08-31T08:47:07.878Z,12.70
2017-08-31T08:48:07.870Z,12.93
2017-08-31T08:49:07.858Z,12.38
2017-08-31T08:50:07.852Z,12.67
2017-08-31T08:51:07.842Z,12.86
2017-08-31T08:52:07.835Z,12.78
2017-08-31T08:53:07.826Z,12.64
2017-08-31T08:54:07.821Z,12.52
2017-08-31T08:55:07.812Z,12.46
2017-08-31T08:56:07.803Z,12.52
2017-08-31T08:57:07.795Z,12.41
2017-08-31T08:58:07.787Z,12.90
2017-08-31T08:59:07.776Z,12.64
2017-08-31T09:00:07.771Z,12.72
2017-08-31T09:01:07.759Z,12.93
2017-08-31T09:02:07.752Z,13.10
2017-08-31T09:03:07.746Z,13.08
2017-08-31T09:04:07.737Z,13.00
2017-08-31T09:05:07.727Z,13.04
2017-08-31T09:06:07.719Z,13.10
2017-08-31T09:07:07.713Z,13.32
2017-08-31T09:08:07.705Z,13.38
2017-08-31T09:09:07.697Z,13.55
2017-08-31T09:10:07.686Z,13.15
2017-08-31T09:11:07.680Z,13.20
2017-08-31T09:12:07.673Z,13.12
2017-08-31T09:13:07.667Z,13.17
2017-08-31T09:14:07.657Z,13.07
2017-08-31T09:15:07.647Z,13.10
2017-08-31T09:16:07.639Z,13.28
2017-08-31T09:17:07.633Z,13.33
2017-08-31T09:18:07.622Z,13.10
2017-08-31T09:19:07.616Z,13.04
2017-08-31T09:20:07.607Z,13.05
2017-08-31T09:21:07.598Z,13.12
2017-08-31T09:22:07.592Z,13.59
2017-08-31T09:23:07.582Z,13.64
2017-08-31T09:24:07.575Z,13.82
2017-08-31T09:25:07.566Z,13.71
2017-08-31T09:26:07.561Z,13.78
2017-08-31T09:27:07.552Z,13.64
2017-08-31T09:28:07.546Z,13.69
2017-08-31T09:29:07.538Z,13.57
2017-08-31T09:30:07.531Z,13.51
2017-08-31T09:31:07.551Z,13.59
2017-08-31T09:32:07.514Z,13.08
2017-08-31T09:33:07.507Z,13.11
2017-08-31T09:34:07.502Z,12.92
2017-08-31T09:35:07.494Z,12.92
2017-08-31T09:36:07.488Z,13.12
2017-08-31T09:37:07.481Z,13.36
2017-08-31T09:38:07.472Z,13.36
2017-08-31T09:39:07.463Z,13.11
2017-08-31T09:40:07.461Z,12.87
2017-08-31T09:41:07.453Z,12.74
2017-08-31T09:42:07.443Z,13.28
2017-08-31T09:43:07.439Z,13.73
2017-08-31T09:44:07.442Z,13.96
2017-08-31T09:45:07.421Z,14.25
2017-08-31T09:46:07.416Z,13.95
2017-08-31T09:47:07.412Z,13.95
2017-08-31T09:48:07.405Z,13.78
2017-08-31T09:49:07.397Z,13.11
2017-08-31T09:50:07.388Z,13.08
2017-08-31T09:51:07.384Z,13.46
2017-08-31T09:52:07.374Z,13.91
2017-08-31T09:53:07.368Z,14.20
2017-08-31T09:54:07.360Z,14.36
2017-08-31T09:55:07.356Z,14.28
2017-08-31T09:56:07.350Z,14.37
2017-08-31T09:57:07.343Z,14.86
2017-08-31T09:58:07.333Z,14.69
2017-08-31T09:59:07.329Z,14.35
2017-08-31T10:00:07.323Z,13.87
2017-08-31T10:01:07.319Z,13.46
2017-08-31T10:02:07.309Z,13.30
2017-08-31T10:03:07.300Z,13.45
2017-08-31T10:04:07.296Z,13.39
2017-08-31T10:05:07.286Z,13.52
2017-08-31T10:06:07.278Z,13.63
2017-08-31T10:07:07.272Z,14.10
2017-08-31T10:08:07.267Z,14.12
2017-08-31T10:09:07.259Z,14.07
2017-08-31T10:10:07.250Z,14.15
2017-08-31T10:11:07.243Z,14.03
2017-08-31T10:12:07.238Z,13.92
2017-08-31T10:13:07.229Z,14.42
2017-08-31T10:14:07.225Z,15.34
2017-08-31T10:15:07.216Z,15.02
2017-08-31T10:16:07.213Z,15.41
2017-08-31T10:17:07.204Z,15.13
2017-08-31T10:18:07.194Z,14.65
2017-08-31T10:19:07.188Z,14.83
2017-08-31T10:20:07.196Z,14.37
2017-08-31T10:21:07.175Z,15.17
2017-08-31T10:22:07.170Z,15.34
2017-08-31T10:23:07.161Z,15.11
2017-08-31T10:24:07.159Z,13.89
2017-08-31T10:25:07.152Z,13.87
2017-08-31T10:26:07.143Z,13.57
2017-08-31T10:27:07.136Z,13.67
2017-08-31T10:28:07.130Z,13.95
2017-08-31T10:29:07.124Z,13.91
2017-08-31T10:30:07.119Z,14.25
2017-08-31T10:31:07.109Z,14.52
2017-08-31T10:32:07.109Z,13.38
2017-08-31T10:33:07.098Z,13.42
2017-08-31T10:34:07.092Z,13.96
2017-08-31T10:35:07.086Z,13.89
2017-08-31T10:36:07.076Z,13.92
2017-08-31T10:37:07.069Z,14.36
2017-08-31T10:38:07.061Z,14.58
2017-08-31T10:39:07.056Z,14.88
2017-08-31T10:40:07.050Z,13.22
2017-08-31T10:41:07.043Z,12.49
2017-08-31T10:42:07.036Z,12.35
2017-08-31T10:43:07.035Z,13.05
2017-08-31T10:44:07.025Z,13.60
2017-08-31T10:45:07.016Z,13.89
2017-08-31T10:46:07.011Z,13.85
2017-08-31T10:47:07.007Z,13.84
2017-08-31T10:48:06.998Z,13.46
2017-08-31T10:49:06.992Z,13.45
2017-08-31T10:50:06.984Z,12.82
2017-08-31T10:51:06.978Z,12.67
2017-08-31T10:52:06.972Z,12.87
2017-08-31T10:53:06.964Z,12.93
2017-08-31T10:54:06.954Z,13.33
2017-08-31T10:55:06.951Z,12.78
2017-08-31T10:56:06.942Z,12.07
2017-08-31T10:57:06.934Z,12.24
2017-08-31T10:58:06.929Z,12.21
2017-08-31T10:59:06.919Z,12.32
2017-08-31T11:00:06.913Z,11.80
2017-08-31T11:01:06.905Z,11.24
2017-08-31T11:02:06.899Z,11.32
2017-08-31T11:03:06.890Z,11.40
2017-08-31T11:04:06.882Z,11.57
2017-08-31T11:05:06.877Z,11.25
2017-08-31T11:06:06.869Z,10.86
2017-08-31T11:07:06.865Z,10.26
2017-08-31T11:08:06.853Z,10.14
2017-08-31T11:09:06.848Z,10.30
2017-08-31T11:10:06.832Z,10.45
2017-08-31T11:11:06.827Z,10.70
2017-08-31T11:12:06.816Z,10.88
2017-08-31T11:13:06.807Z,10.81
2017-08-31T11:14:06.799Z,11.09
2017-08-31T11:15:06.793Z,11.03
2017-08-31T11:16:06.785Z,10.81
2017-08-31T11:17:06.780Z,10.86
2017-08-31T11:18:06.767Z,10.61
2017-08-31T11:19:06.758Z,10.14
2017-08-31T11:20:06.749Z,10.29
2017-08-31T11:21:06.741Z,10.01
2017-08-31T11:22:06.736Z,10.20
2017-08-31T11:23:06.732Z,10.14
2017-08-31T11:24:06.715Z,9.86
2017-08-31T11:25:06.704Z,9.91
2017-08-31T11:26:06.694Z,9.79
2017-08-31T11:27:06.739Z,9.94
2017-08-31T11:28:06.739Z,10.02
2017-08-31T11:29:06.781Z,9.76
2017-08-31T11:30:06.781Z,9.65
2017-08-31T11:31:06.743Z,9.74
2017-08-31T11:32:06.733Z,9.81
2017-08-31T11:33:06.729Z,9.94
2017-08-31T11:34:06.847Z,10.18
2017-08-31T11:35:06.748Z,10.33
2017-08-31T11:36:06.799Z,10.12
2017-08-31T11:37:06.656Z,9.83
2017-08-31T11:38:06.576Z,9.60
2017-08-31T11:39:06.569Z,9.60
2017-08-31T11:40:06.566Z,9.54
2017-08-31T11:41:06.558Z,9.74
2017-08-31T11:42:06.537Z,9.96
2017-08-31T11:43:06.528Z,9.90
2017-08-31T11:44:06.519Z,9.74
2017-08-31T11:45:06.509Z,9.75
2017-08-31T11:46:06.497Z,10.12
2017-08-31T11:47:06.485Z,9.96
2017-08-31T11:48:06.476Z,9.90
2017-08-31T11:49:06.465Z,10.04
2017-08-31T11:50:06.453Z,9.38
2017-08-31T11:51:06.445Z,9.57
2017-08-31T11:52:06.437Z,9.76
2017-08-31T11:53:06.421Z,9.69
2017-08-31T11:54:06.413Z,9.35
2017-08-31T11:55:06.403Z,9.29
2017-08-31T11:56:06.389Z,9.28
2017-08-31T11:57:06.378Z,9.31
2017-08-31T11:58:06.367Z,9.43
2017-08-31T11:59:06.358Z,9.28
2017-08-31T12:00:06.346Z,9.01
2017-08-31T12:01:06.334Z,8.96
2017-08-31T12:02:06.323Z,9.33
2017-08-31T12:03:06.314Z,9.43
2017-08-31T12:04:06.304Z,9.46
2017-08-31T12:05:06.291Z,9.40
2017-08-31T12:06:06.278Z,9.39
2017-08-31T12:07:06.271Z,9.23
2017-08-31T12:08:06.261Z,9.23
2017-08-31T12:09:06.250Z,9.35
2017-08-31T12:10:06.238Z,9.32
2017-08-31T12:11:06.227Z,9.18
2017-08-31T12:12:06.215Z,8.80
2017-08-31T12:13:06.202Z,8.58
2017-08-31T12:14:06.192Z,8.80
2017-08-31T12:15:06.181Z,8.95
2017-08-31T12:16:06.171Z,9.05
2017-08-31T12:17:06.157Z,9.15
2017-08-31T12:18:06.147Z,8.99
2017-08-31T12:19:06.137Z,8.96
2017-08-31T12:20:06.129Z,8.91
2017-08-31T12:21:06.119Z,8.84
2017-08-31T12:22:06.103Z,8.70
2017-08-31T12:23:06.095Z,8.44
2017-08-31T12:24:06.084Z,8.28
2017-08-31T12:25:06.070Z,8.22
2017-08-31T12:26:06.059Z,8.12
2017-08-31T12:27:06.048Z,7.98
2017-08-31T12:28:06.038Z,8.08
2017-08-31T12:29:06.027Z,8.28
2017-08-31T12:30:06.015Z,8.16
2017-08-31T12:31:06.003Z,8.08
2017-08-31T12:32:05.994Z,8.10
2017-08-31T12:33:05.978Z,8.26
2017-08-31T12:34:05.967Z,8.22
2017-08-31T12:35:05.956Z,8.18
2017-08-31T12:36:05.947Z,8.10
2017-08-31T12:37:05.932Z,8.18
2017-08-31T12:38:05.921Z,8.44
2017-08-31T12:39:05.910Z,8.56
2017-08-31T12:40:05.901Z,8.40
2017-08-31T12:41:05.887Z,8.83
2017-08-31T12:42:05.877Z,9.13
2017-08-31T12:43:05.865Z,9.20
2017-08-31T12:44:05.856Z,9.40
2017-08-31T12:45:05.843Z,9.05
2017-08-31T12:46:05.836Z,9.28
2017-08-31T12:47:05.824Z,8.83
2017-08-31T12:48:05.810Z,8.62
2017-08-31T12:49:05.799Z,8.34
2017-08-31T12:50:05.788Z,8.34
2017-08-31T12:51:05.780Z,8.52
2017-08-31T12:52:05.768Z,8.16
2017-08-31T12:53:05.756Z,8.18
2017-08-31T12:54:05.748Z,8.11
2017-08-31T12:55:05.732Z,8.38
2017-08-31T12:56:05.720Z,8.37
2017-08-31T12:57:05.709Z,8.59
2017-08-31T12:58:05.698Z,9.04
2017-08-31T12:59:05.690Z,8.81
2017-08-31T13:00:05.678Z,8.99
2017-08-31T13:01:05.665Z,8.91
2017-08-31T13:02:05.657Z,8.74
2017-08-31T13:03:05.648Z,8.98
2017-08-31T13:04:05.637Z,9.43
2017-08-31T13:05:05.623Z,8.87
2017-08-31T13:06:05.613Z,8.96
2017-08-31T13:07:05.606Z,8.98
2017-08-31T13:08:05.593Z,9.11
2017-08-31T13:09:05.581Z,9.04
2017-08-31T13:10:05.570Z,9.47
2017-08-31T13:11:05.561Z,9.40
2017-08-31T13:12:05.553Z,9.46
2017-08-31T13:13:05.542Z,9.81
2017-08-31T13:14:05.533Z,9.42
2017-08-31T13:15:05.524Z,9.46
2017-08-31T13:16:05.515Z,9.28
2017-08-31T13:17:05.503Z,9.35
2017-08-31T13:18:05.493Z,9.50
2017-08-31T13:19:05.481Z,9.39
2017-08-31T13:20:05.472Z,9.89
2017-08-31T13:21:05.461Z,9.66
2017-08-31T13:22:05.452Z,9.58
2017-08-31T13:23:05.450Z,9.05
2017-08-31T13:24:05.434Z,8.79
2017-08-31T13:25:05.427Z,9.29
2017-08-31T13:26:05.412Z,9.43
2017-08-31T13:27:05.403Z,9.68
2017-08-31T13:28:05.393Z,9.68
2017-08-31T13:29:05.381Z,9.57
2017-08-31T13:30:05.372Z,9.48
2017-08-31T13:31:05.367Z,9.68
2017-08-31T13:32:05.355Z,9.84
2017-08-31T13:33:05.343Z,9.89
2017-08-31T13:34:05.335Z,9.78
2017-08-31T13:35:05.324Z,9.01
2017-08-31T13:36:05.314Z,8.87
2017-08-31T13:37:05.307Z,9.23
2017-08-31T13:38:05.297Z,9.40
2017-08-31T13:39:05.288Z,9.69
2017-08-31T13:40:05.279Z,9.26
2017-08-31T13:41:05.266Z,9.21
2017-08-31T13:42:05.256Z,8.95
2017-08-31T13:43:05.250Z,8.70
2017-08-31T13:44:05.239Z,8.77
2017-08-31T13:45:05.229Z,8.45
2017-08-31T13:46:05.222Z,8.53
2017-08-31T13:47:05.211Z,8.05
2017-08-31T13:48:05.203Z,6.92
2017-08-31T13:49:05.189Z,6.58
2017-08-31T13:50:05.182Z,6.98
2017-08-31T13:51:05.169Z,7.25
2017-08-31T13:52:05.159Z,6.44
2017-08-31T13:53:05.152Z,6.11
2017-08-31T13:54:05.136Z,6.27
2017-08-31T13:55:05.125Z,6.18
2017-08-31T13:56:05.113Z,6.08
2017-08-31T13:57:05.103Z,5.81
2017-08-31T13:58:05.091Z,5.91
2017-08-31T13:59:05.080Z,5.94
2017-08-31T14:00:05.066Z,5.81
2017-08-31T14:01:05.056Z,5.94
2017-08-31T14:02:05.045Z,5.71
2017-08-31T14:03:05.029Z,5.90
2017-08-31T14:04:05.020Z,6.03
2017-08-31T14:05:05.005Z,6.06
2017-08-31T14:06:05.001Z,5.99
2017-08-31T14:07:04.981Z,5.96
2017-08-31T14:08:04.972Z,5.74
2017-08-31T14:09:04.958Z,5.78
2017-08-31T14:10:04.946Z,5.58
2017-08-31T14:11:04.933Z,5.64
2017-08-31T14:12:04.921Z,5.93
2017-08-31T14:13:04.908Z,6.09
2017-08-31T14:14:04.893Z,6.17
2017-08-31T14:15:04.883Z,6.09
2017-08-31T14:16:04.870Z,6.04
2017-08-31T14:17:04.856Z,5.94
2017-08-31T14:18:04.845Z,5.89
2017-08-31T14:19:04.831Z,5.75